createdAt,value
2018-11-11T00:03:13.289Z,7.70
2018-11-11T00:08:08.163Z,7.70
2018-11-11T00:13:12.602Z,7.70
2018-11-11T00:18:10.141Z,7.70
2018-11-11T00:23:05.450Z,7.70
2018-11-11T00:28:00.680Z,7.70
2018-11-11T00:33:00.938Z,7.80
2018-11-11T00:37:56.262Z,7.80
2018-11-11T00:42:51.550Z,7.90
2018-11-11T00:47:47.570Z,7.80
2018-11-11T00:52:43.169Z,7.80
2018-11-11T00:57:47.008Z,7.90
2018-11-11T01:02:44.047Z,7.90
2018-11-11T01:07:47.271Z,7.90
2018-11-11T01:12:46.624Z,7.70
2018-11-11T01:17:47.217Z,7.70
2018-11-11T01:22:42.782Z,7.80
2018-11-11T01:27:44.232Z,7.90
2018-11-11T01:32:43.396Z,7.80
2018-11-11T01:37:38.419Z,7.70
2018-11-11T01:42:33.554Z,7.60
2018-11-11T01:47:28.641Z,7.70
2018-11-11T01:52:35.572Z,7.80
2018-11-11T01:57:30.592Z,7.90
2018-11-11T02:02:32.564Z,7.80
2018-11-11T02:07:27.631Z,7.70
2018-11-11T02:12:23.115Z,7.70
2018-11-11T02:17:18.334Z,7.70
2018-11-11T02:22:13.348Z,7.70
2018-11-11T02:27:08.349Z,7.70
2018-11-11T02:32:03.262Z,7.70
2018-11-11T02:37:02.670Z,7.70
2018-11-11T02:42:04.321Z,7.80
2018-11-11T02:47:06.564Z,7.80
2018-11-11T02:52:07.923Z,7.70
2018-11-11T02:57:13.127Z,7.70
2018-11-11T03:02:08.309Z,7.80
2018-11-11T03:07:03.318Z,7.90
2018-11-11T03:11:58.272Z,7.90
2018-11-11T03:17:02.363Z,7.90
2018-11-11T03:21:57.322Z,8.00
2018-11-11T03:26:52.339Z,8.00
2018-11-11T03:31:47.376Z,8.00
2018-11-11T03:36:43.046Z,8.00
2018-11-11T03:41:42.915Z,7.90
2018-11-11T03:46:41.608Z,7.90
2018-11-11T03:51:40.928Z,7.90
2018-11-11T03:56:37.639Z,7.80
2018-11-11T04:01:37.350Z,7.80
2018-11-11T04:06:40.922Z,7.80
2018-11-11T04:11:40.494Z,7.90
2018-11-11T04:16:36.389Z,7.80
2018-11-11T04:21:32.047Z,7.80
2018-11-11T04:26:27.744Z,7.90
2018-11-11T04:31:22.710Z,7.80
2018-11-11T04:36:17.590Z,7.80
2018-11-11T04:41:12.428Z,7.80
2018-11-11T04:46:07.343Z,7.60
2018-11-11T04:51:02.151Z,7.50
2018-11-11T04:55:56.948Z,7.60
2018-11-11T05:00:51.782Z,7.60
2018-11-11T05:05:46.642Z,7.60
2018-11-11T05:10:41.470Z,7.60
2018-11-11T05:15:36.304Z,7.70
2018-11-11T05:20:32.545Z,7.80
2018-11-11T05:25:27.346Z,7.70
2018-11-11T05:30:24.884Z,7.60
2018-11-11T05:35:19.725Z,7.70
2018-11-11T05:40:14.947Z,7.70
2018-11-11T05:45:13.157Z,7.70
2018-11-11T05:50:13.280Z,7.80
2018-11-11T05:55:19.561Z,7.80
2018-11-11T06:00:23.033Z,7.70
2018-11-11T06:05:18.025Z,7.70
2018-11-11T06:10:14.280Z,7.80
2018-11-11T06:15:11.829Z,7.70
2018-11-11T06:20:09.601Z,7.70
2018-11-11T06:25:04.665Z,7.90
2018-11-11T06:30:00.866Z,8.00
2018-11-11T06:34:57.301Z,8.00
2018-11-11T06:39:57.496Z,8.10
2018-11-11T06:44:56.375Z,8.10
2018-11-11T06:49:51.734Z,8.10
2018-11-11T06:54:46.595Z,8.20
2018-11-11T06:59:41.768Z,8.20
2018-11-11T07:04:40.473Z,8.20
2018-11-11T07:09:38.232Z,8.20
2018-11-11T07:14:34.587Z,8.30
2018-11-11T07:19:36.390Z,8.30
2018-11-11T07:24:31.219Z,8.30
2018-11-11T07:29:26.053Z,8.40
2018-11-11T07:34:22.386Z,8.50
2018-11-11T07:39:17.581Z,8.60
2018-11-11T07:44:32.182Z,8.60
2018-11-11T07:49:37.200Z,8.60
2018-11-11T08:05:37.746Z,8.90
2018-11-11T08:10:51.719Z,8.90
2018-11-11T08:18:19.116Z,8.90
2018-11-11T08:23:26.304Z,8.90
2018-11-11T08:30:51.126Z,8.90
2018-11-11T08:35:55.662Z,9.00
2018-11-11T08:41:00.803Z,8.90
2018-11-11T08:46:17.734Z,8.90
2018-11-11T09:02:03.281Z,9.00
2018-11-11T09:07:00.901Z,9.10
2018-11-11T09:11:55.910Z,9.00
2018-11-11T09:21:16.199Z,9.10
2018-11-11T09:26:16.696Z,9.20
2018-11-11T09:31:11.962Z,9.40
2018-11-11T09:36:07.995Z,9.50
2018-11-11T09:41:24.920Z,9.60
2018-11-11T09:46:19.817Z,9.50
2018-11-11T09:51:14.619Z,9.70
2018-11-11T09:56:09.602Z,10.20
2018-11-11T10:01:48.706Z,10.50
2018-11-11T10:06:47.999Z,10.60
2018-11-11T10:13:50.609Z,10.60
2018-11-11T10:18:51.557Z,10.50
2018-11-11T10:29:47.805Z,10.80
2018-11-11T10:34:51.014Z,10.80
2018-11-11T10:40:00.646Z,10.80
2018-11-11T10:45:03.992Z,10.80
2018-11-11T10:50:01.540Z,10.80
2018-11-11T10:54:57.592Z,10.90
2018-11-11T10:59:53.255Z,10.80
2018-11-11T11:05:00.831Z,10.80
2018-11-11T11:09:58.157Z,10.80
2018-11-11T11:15:01.712Z,11.00
2018-11-11T11:25:23.983Z,11.40
2018-11-11T11:30:20.379Z,11.50
2018-11-11T11:41:04.022Z,11.40
2018-11-11T11:56:15.632Z,11.20
2018-11-11T12:10:17.453Z,11.10
2018-11-11T12:44:26.160Z,11.10
2018-11-11T12:55:13.989Z,11.30
2018-11-11T13:00:32.733Z,11.30
2018-11-11T13:05:36.529Z,11.30
2018-11-11T13:10:48.913Z,11.30
2018-11-11T13:15:44.967Z,11.30
2018-11-11T13:20:42.499Z,11.30
2018-11-11T13:25:39.425Z,11.30
2018-11-11T13:30:35.935Z,11.30
2018-11-11T13:35:55.824Z,11.30
2018-11-11T13:40:51.167Z,11.30
2018-11-11T13:45:48.646Z,11.30
2018-11-11T13:56:17.239Z,11.30
2018-11-11T14:01:30.636Z,11.40
2018-11-11T14:06:29.512Z,11.40
2018-11-11T14:11:26.188Z,11.50
2018-11-11T14:16:23.193Z,11.50
2018-11-11T14:21:18.447Z,11.50
2018-11-11T14:26:17.171Z,11.50
2018-11-11T14:37:08.386Z,11.60
2018-11-11T14:42:10.837Z,11.60
2018-11-11T14:47:19.111Z,11.50
2018-11-11T14:52:33.310Z,11.50
2018-11-11T14:59:50.348Z,11.40
2018-11-11T15:04:46.598Z,11.30
2018-11-11T15:09:44.463Z,11.20
2018-11-11T15:14:41.848Z,11.10
2018-11-11T15:19:42.348Z,11.00
2018-11-11T15:24:49.285Z,11.00
2018-11-11T15:29:50.036Z,11.00
2018-11-11T15:35:04.238Z,10.80
2018-11-11T15:45:28.866Z,10.60
2018-11-11T16:01:23.733Z,10.40
2018-11-11T16:06:18.726Z,10.30
2018-11-11T16:11:13.628Z,10.30
2018-11-11T16:16:09.018Z,10.20
2018-11-11T16:21:04.031Z,10.00
2018-11-11T16:25:59.206Z,9.80
2018-11-11T16:30:55.559Z,9.70
2018-11-11T16:36:16.499Z,9.70
2018-11-11T16:41:12.456Z,9.60
2018-11-11T16:46:08.205Z,9.50
2018-11-11T16:51:04.573Z,9.50
2018-11-11T16:56:00.967Z,9.40
2018-11-11T17:06:22.472Z,9.10
2018-11-11T17:11:17.872Z,9.00
2018-11-11T17:16:14.311Z,8.90
2018-11-11T17:21:16.341Z,8.80
2018-11-11T17:26:11.477Z,8.60
2018-11-11T17:31:07.034Z,8.70
2018-11-11T17:36:03.448Z,8.60
2018-11-11T17:41:03.842Z,8.40
2018-11-11T17:45:59.946Z,8.40
2018-11-11T17:50:55.232Z,8.30
2018-11-11T17:55:52.843Z,8.30
2018-11-11T18:00:48.050Z,8.50
2018-11-11T18:05:43.458Z,8.60
2018-11-11T18:10:38.819Z,8.70
2018-11-11T18:15:44.355Z,8.70
2018-11-11T18:20:46.679Z,8.70
2018-11-11T18:25:41.867Z,8.80
2018-11-11T18:30:37.083Z,8.80
2018-11-11T18:36:14.802Z,8.80
2018-11-11T18:41:12.106Z,8.70
2018-11-11T18:51:46.142Z,8.70
2018-11-11T18:56:50.565Z,8.80
2018-11-11T19:01:47.057Z,8.70
2018-11-11T19:06:43.342Z,8.60
2018-11-11T19:11:40.533Z,8.50
2018-11-11T19:16:35.712Z,8.30
2018-11-11T19:21:31.841Z,8.20
2018-11-11T19:26:29.055Z,8.20
2018-11-11T19:31:42.221Z,8.10
2018-11-11T19:36:43.618Z,8.00
2018-11-11T19:41:45.927Z,7.90
2018-11-11T19:47:08.352Z,7.90
2018-11-11T19:52:14.690Z,7.70
2018-11-11T20:12:55.000Z,7.60
2018-11-11T20:18:09.245Z,7.50
2018-11-11T20:23:18.793Z,7.60
2018-11-11T20:28:25.484Z,7.70
2018-11-11T20:33:28.437Z,7.80
2018-11-11T20:38:27.900Z,7.80
2018-11-11T20:43:31.268Z,7.70
2018-11-11T20:48:40.728Z,7.70
2018-11-11T20:53:36.765Z,7.80
2018-11-11T21:05:26.857Z,7.70
2018-11-11T21:10:44.222Z,7.80
2018-11-11T21:16:19.710Z,7.80
2018-11-11T21:21:50.175Z,7.80
2018-11-11T21:38:06.859Z,7.70
2018-11-11T21:53:02.310Z,7.90
2018-11-11T22:06:06.236Z,7.80
2018-11-11T22:11:01.957Z,7.70
2018-11-11T22:33:08.490Z,7.40
2018-11-11T22:44:20.401Z,7.40
2018-11-11T22:49:27.786Z,7.40
2018-11-11T22:54:28.083Z,7.40
2018-11-11T23:26:57.447Z,7.00
2018-11-11T23:48:39.217Z,7.70
2018-11-11T23:53:55.647Z,8.00
